createdAt,value
2017-09-09T00:00:52.236Z,13.83
2017-09-09T00:02:04.477Z,13.86
2017-09-09T00:03:16.718Z,13.97
2017-09-09T00:04:29.335Z,13.86
2017-09-09T00:05:41.609Z,13.8
2017-09-09T00:06:53.623Z,13.91
2017-09-09T00:08:05.286Z,13.93
2017-09-09T00:09:17.215Z,13.87
2017-09-09T00:10:29.170Z,13.91
2017-09-09T00:11:41.862Z,13.86
2017-09-09T00:12:54.501Z,13.93
2017-09-09T00:14:06.454Z,13.97
2017-09-09T00:15:18.771Z,13.87
2017-09-09T00:16:31.030Z,13.91
2017-09-09T00:17:42.984Z,13.87
2017-09-09T00:18:55.280Z,13.91
2017-09-09T00:20:08.078Z,13.82
2017-09-09T00:21:20.720Z,13.87
2017-09-09T00:22:33.366Z,13.87
2017-09-09T00:23:45.917Z,13.87
2017-09-09T00:24:58.224Z,13.93
2017-09-09T00:26:10.489Z,13.95
2017-09-09T00:27:23.124Z,13.86
2017-09-09T00:28:34.781Z,13.97
2017-09-09T00:29:47.346Z,13.86
2017-09-09T00:30:59.599Z,13.89
2017-09-09T00:32:12.206Z,13.86
2017-09-09T00:33:24.505Z,13.94
2017-09-09T00:34:37.100Z,13.94
2017-09-09T00:35:49.692Z,13.94
2017-09-09T00:37:01.937Z,13.85
2017-09-09T00:38:14.537Z,13.97
2017-09-09T00:39:27.108Z,13.91
2017-09-09T00:40:39.774Z,13.85
2017-09-09T00:41:52.334Z,13.85
2017-09-09T00:43:04.307Z,13.86
2017-09-09T00:44:16.935Z,13.8
2017-09-09T00:45:29.608Z,13.82
2017-09-09T00:46:42.178Z,13.82
2017-09-09T00:47:54.473Z,13.89
2017-09-09T00:49:07.051Z,13.86
2017-09-09T00:50:19.640Z,13.91
2017-09-09T00:51:32.290Z,13.8
2017-09-09T00:52:44.791Z,13.91
2017-09-09T00:53:56.755Z,13.93
2017-09-09T00:55:09.365Z,13.91
2017-09-09T00:56:21.869Z,13.87
2017-09-09T00:57:34.114Z,13.87
2017-09-09T00:58:46.664Z,13.86
2017-09-09T00:59:58.605Z,13.86
2017-09-09T01:01:10.584Z,13.85
2017-09-09T01:02:22.908Z,13.8
2017-09-09T01:03:35.803Z,13.76
2017-09-09T01:04:48.416Z,13.83
2017-09-09T01:06:00.951Z,13.79
2017-09-09T01:07:13.214Z,13.8
2017-09-09T01:08:25.528Z,13.79
2017-09-09T01:09:37.782Z,13.78
2017-09-09T01:10:50.348Z,13.83
2017-09-09T01:12:02.305Z,13.91
2017-09-09T01:13:14.250Z,13.86
2017-09-09T01:14:26.765Z,13.85
2017-09-09T01:15:38.405Z,13.79
2017-09-09T01:16:51.053Z,13.83
2017-09-09T01:18:03.683Z,13.83
2017-09-09T01:19:15.911Z,13.91
2017-09-09T01:20:28.185Z,13.79
2017-09-09T01:21:40.445Z,13.93
2017-09-09T01:22:52.759Z,13.89
2017-09-09T01:24:05.133Z,13.89
2017-09-09T01:25:17.493Z,13.94
2017-09-09T01:26:29.777Z,13.94
2017-09-09T01:27:42.361Z,13.89
2017-09-09T01:28:54.662Z,13.86
2017-09-09T01:30:07.279Z,13.87
2017-09-09T01:31:19.895Z,13.91
2017-09-09T01:32:32.144Z,13.79
2017-09-09T01:33:44.081Z,13.86
2017-09-09T01:34:56.737Z,13.87
2017-09-09T01:36:09.526Z,13.87
2017-09-09T01:37:22.154Z,13.85
2017-09-09T01:38:34.683Z,13.91
2017-09-09T01:39:46.936Z,13.93
2017-09-09T01:40:59.234Z,13.87
2017-09-09T01:42:11.510Z,13.91
2017-09-09T01:43:24.116Z,13.94
2017-09-09T01:44:36.693Z,14.01
2017-09-09T01:45:48.388Z,13.95
2017-09-09T01:47:00.922Z,13.95
2017-09-09T01:48:13.208Z,13.98
2017-09-09T01:49:25.463Z,13.97
2017-09-09T01:50:37.729Z,14.03
2017-09-09T01:51:50.279Z,14
2017-09-09T01:53:02.567Z,13.93
2017-09-09T01:54:15.162Z,14
2017-09-09T01:55:27.436Z,13.98
2017-09-09T01:56:39.677Z,13.93
2017-09-09T01:57:51.908Z,14.04
2017-09-09T01:59:04.485Z,14
2017-09-09T02:00:17.116Z,13.98
2017-09-09T02:01:29.670Z,14.08
2017-09-09T02:02:42.254Z,14.04
2017-09-09T02:03:54.556Z,14.01
2017-09-09T02:05:06.862Z,14.05
2017-09-09T02:06:19.470Z,14.03
2017-09-09T02:07:32.017Z,14.04
2017-09-09T02:08:44.566Z,14
2017-09-09T02:09:56.856Z,13.98
2017-09-09T02:11:09.403Z,14.03
2017-09-09T02:12:21.644Z,14
2017-09-09T02:13:34.239Z,14.03
2017-09-09T02:14:46.789Z,14.03
2017-09-09T02:15:58.432Z,14.05
2017-09-09T02:17:10.679Z,14.01
2017-09-09T02:18:23.259Z,14
2017-09-09T02:19:35.904Z,14.04
2017-09-09T02:20:47.894Z,14.04
2017-09-09T02:22:00.169Z,14.01
2017-09-09T02:23:12.730Z,14.05
2017-09-09T02:24:25.346Z,14
2017-09-09T02:25:37.599Z,14.07
2017-09-09T02:26:49.899Z,14.08
2017-09-09T02:28:02.516Z,14.01
2017-09-09T02:29:14.836Z,14.07
2017-09-09T02:30:27.433Z,14.04
2017-09-09T02:31:39.992Z,14.05
2017-09-09T02:32:52.237Z,14.08
2017-09-09T02:34:04.166Z,14.05
2017-09-09T02:35:16.786Z,14.03
2017-09-09T02:36:28.766Z,14.04
2017-09-09T02:37:40.714Z,14.03
2017-09-09T02:38:53.324Z,14.05
2017-09-09T02:40:05.260Z,14.05
2017-09-09T02:41:17.768Z,14.04
2017-09-09T02:42:30.411Z,14.05
2017-09-09T02:43:42.657Z,14.04
2017-09-09T02:44:54.937Z,14.03
2017-09-09T02:46:07.190Z,14.04
2017-09-09T02:47:18.795Z,14.12
2017-09-09T02:48:31.464Z,14.04
2017-09-09T02:49:43.753Z,14.04
2017-09-09T02:50:56.032Z,14.04
2017-09-09T02:52:08.294Z,14.04
2017-09-09T02:53:20.546Z,14.05
2017-09-09T02:54:33.110Z,14.03
2017-09-09T02:55:45.680Z,14.08
2017-09-09T02:56:57.957Z,14.05
2017-09-09T02:58:10.603Z,14
2017-09-09T02:59:23.130Z,14.12
2017-09-09T03:00:35.438Z,14.04
2017-09-09T03:01:48.016Z,14.05
2017-09-09T03:03:00.192Z,14.07
2017-09-09T03:04:12.775Z,14.03
2017-09-09T03:05:25.011Z,14.05
2017-09-09T03:06:37.584Z,14
2017-09-09T03:07:50.187Z,14.08
2017-09-09T03:09:02.476Z,14.03
2017-09-09T03:10:14.427Z,14.07
2017-09-09T03:11:26.756Z,14.05
2017-09-09T03:12:39.032Z,14.08
2017-09-09T03:13:51.320Z,14.16
2017-09-09T03:15:03.867Z,14.15
2017-09-09T03:16:16.146Z,14.2
2017-09-09T03:17:28.777Z,14.13
2017-09-09T03:18:41.321Z,14.19
2017-09-09T03:19:53.575Z,14.22
2017-09-09T03:21:05.814Z,14.23
2017-09-09T03:22:18.104Z,14.23
2017-09-09T03:23:30.670Z,14.19
2017-09-09T03:24:43.169Z,14.23
2017-09-09T03:25:55.762Z,14.22
2017-09-09T03:27:07.700Z,14.26
2017-09-09T03:28:19.927Z,14.26
2017-09-09T03:29:32.215Z,14.34
2017-09-09T03:30:44.787Z,14.22
2017-09-09T03:31:57.349Z,14.26
2017-09-09T03:33:08.955Z,14.33
2017-09-09T03:34:21.233Z,14.3
2017-09-09T03:35:33.543Z,14.36
2017-09-09T03:36:45.816Z,14.37
2017-09-09T03:37:58.038Z,14.36
2017-09-09T03:39:10.636Z,14.48
2017-09-09T03:40:22.930Z,14.44
2017-09-09T03:41:35.183Z,14.51
2017-09-09T03:42:47.777Z,14.48
2017-09-09T03:44:00.070Z,14.41
2017-09-09T03:45:12.626Z,14.44
2017-09-09T03:46:25.204Z,14.45
2017-09-09T03:47:37.800Z,14.53
2017-09-09T03:48:50.023Z,14.37
2017-09-09T03:50:02.645Z,14.48
2017-09-09T03:51:14.916Z,14.49
2017-09-09T03:52:26.843Z,14.52
2017-09-09T03:53:38.778Z,14.41
2017-09-09T03:54:50.783Z,14.4
2017-09-09T03:56:03.061Z,14.53
2017-09-09T03:57:15.029Z,14.53
2017-09-09T03:58:27.636Z,14.52
2017-09-09T03:59:39.910Z,14.53
2017-09-09T04:00:52.481Z,14.55
2017-09-09T04:02:05.115Z,14.55
2017-09-09T04:03:17.394Z,14.49
2017-09-09T04:04:29.315Z,14.51
2017-09-09T04:05:41.863Z,14.56
2017-09-09T04:06:54.503Z,14.55
2017-09-09T04:08:07.079Z,14.56
2017-09-09T04:09:19.047Z,14.55
2017-09-09T04:10:31.310Z,14.58
2017-09-09T04:11:43.315Z,14.53
2017-09-09T04:12:55.570Z,14.55
2017-09-09T04:14:07.810Z,14.51
2017-09-09T04:15:20.428Z,14.62
2017-09-09T04:16:33.013Z,14.59
2017-09-09T04:17:45.323Z,14.56
2017-09-09T04:18:57.862Z,14.52
2017-09-09T04:20:10.108Z,14.59
2017-09-09T04:21:22.090Z,14.53
2017-09-09T04:22:34.405Z,14.51
2017-09-09T04:23:46.698Z,14.48
2017-09-09T04:24:58.069Z,14.53
2017-09-09T04:26:10.011Z,14.59
2017-09-09T04:27:22.592Z,14.59
2017-09-09T04:28:35.220Z,14.59
2017-09-09T04:29:47.773Z,14.56
2017-09-09T04:31:00.392Z,14.58
2017-09-09T04:32:12.979Z,14.68
2017-09-09T04:33:25.267Z,14.66
2017-09-09T04:34:37.612Z,14.66
2017-09-09T04:35:50.143Z,14.59
2017-09-09T04:37:02.451Z,14.63
2017-09-09T04:38:14.820Z,14.67
2017-09-09T04:39:27.113Z,14.63
2017-09-09T04:40:39.644Z,14.62
2017-09-09T04:41:51.930Z,14.7
2017-09-09T04:43:04.507Z,14.66
2017-09-09T04:44:16.849Z,14.62
2017-09-09T04:45:29.445Z,14.63
2017-09-09T04:46:41.708Z,14.68
2017-09-09T04:47:53.942Z,14.67
2017-09-09T04:49:05.928Z,14.71
2017-09-09T04:50:18.527Z,14.77
2017-09-09T04:51:30.855Z,14.73
2017-09-09T04:52:43.464Z,14.66
2017-09-09T04:53:56.085Z,14.7
2017-09-09T04:55:08.717Z,14.67
2017-09-09T04:56:21.320Z,14.7
2017-09-09T04:57:33.940Z,14.71
2017-09-09T04:58:46.211Z,14.77
2017-09-09T04:59:57.921Z,14.74
2017-09-09T05:01:10.240Z,14.77
2017-09-09T05:02:22.506Z,14.78
2017-09-09T05:03:35.075Z,14.71
2017-09-09T05:04:47.650Z,14.78
2017-09-09T05:05:59.941Z,14.78
2017-09-09T05:07:11.615Z,14.78
2017-09-09T05:08:24.169Z,14.78
2017-09-09T05:09:36.737Z,14.74
2017-09-09T05:10:49.326Z,14.79
2017-09-09T05:12:01.852Z,14.78
2017-09-09T05:13:13.482Z,14.79
2017-09-09T05:14:25.762Z,14.77
2017-09-09T05:15:38.375Z,14.74
2017-09-09T05:16:50.952Z,14.74
2017-09-09T05:18:03.527Z,14.82
2017-09-09T05:19:16.144Z,14.89
2017-09-09T05:20:28.390Z,14.9
2017-09-09T05:21:41.012Z,14.89
2017-09-09T05:22:53.312Z,14.86
2017-09-09T05:24:05.277Z,14.92
2017-09-09T05:25:17.526Z,14.92
2017-09-09T05:26:29.773Z,14.96
2017-09-09T05:27:42.068Z,14.96
2017-09-09T05:28:54.326Z,14.96
2017-09-09T05:30:06.298Z,14.9
2017-09-09T05:31:18.544Z,14.93
2017-09-09T05:32:30.797Z,14.93
2017-09-09T05:33:43.085Z,14.94
2017-09-09T05:34:55.323Z,14.93
2017-09-09T05:36:07.951Z,14.9
2017-09-09T05:37:19.882Z,14.92
2017-09-09T05:38:32.127Z,14.9
2017-09-09T05:39:44.769Z,14.93
2017-09-09T05:40:57.383Z,14.93
2017-09-09T05:42:09.970Z,14.94
2017-09-09T05:43:22.224Z,14.92
2017-09-09T05:44:34.838Z,14.94
2017-09-09T05:45:47.126Z,14.97
2017-09-09T05:46:59.135Z,15.02
2017-09-09T05:48:11.731Z,14.94
2017-09-09T05:49:24.310Z,14.96
2017-09-09T05:50:36.613Z,14.96
2017-09-09T05:51:49.194Z,14.97
2017-09-09T05:53:01.549Z,14.96
2017-09-09T05:54:14.136Z,14.96
2017-09-09T05:55:26.149Z,14.97
2017-09-09T05:56:38.470Z,14.92
2017-09-09T05:57:51.073Z,14.92
2017-09-09T05:59:03.629Z,15
2017-09-09T06:00:15.933Z,15
2017-09-09T06:01:28.566Z,14.99
2017-09-09T06:02:41.162Z,15.02
2017-09-09T06:03:53.457Z,15
2017-09-09T06:05:05.727Z,15
2017-09-09T06:06:17.699Z,15.08
2017-09-09T06:07:29.856Z,15.15
2017-09-09T06:08:42.458Z,15.04
2017-09-09T06:09:55.078Z,15.05
2017-09-09T06:11:07.035Z,15.11
2017-09-09T06:12:19.233Z,15.15
2017-09-09T06:13:31.211Z,15.19
2017-09-09T06:14:43.861Z,15.27
2017-09-09T06:15:56.432Z,15.29
2017-09-09T06:17:08.360Z,15.35
2017-09-09T06:18:20.899Z,15.23
2017-09-09T06:19:33.506Z,15.36
2017-09-09T06:20:46.067Z,15.33
2017-09-09T06:21:58.286Z,15.39
2017-09-09T06:23:10.206Z,15.45
2017-09-09T06:24:22.710Z,15.5
2017-09-09T06:25:35.255Z,15.59
2017-09-09T06:26:47.843Z,15.45
2017-09-09T06:28:00.433Z,15.55
2017-09-09T06:29:13.067Z,15.72
2017-09-09T06:30:25.349Z,15.7
2017-09-09T06:31:36.964Z,15.76
2017-09-09T06:32:49.559Z,15.73
2017-09-09T06:34:01.831Z,15.83
2017-09-09T06:35:14.494Z,15.99
2017-09-09T06:36:27.108Z,15.96
2017-09-09T06:37:39.734Z,15.94
2017-09-09T06:38:52.011Z,16
2017-09-09T06:40:04.583Z,16.03
2017-09-09T06:41:16.537Z,16.02
2017-09-09T06:42:28.795Z,16.03
2017-09-09T06:43:41.362Z,16.02
2017-09-09T06:44:53.659Z,16.12
2017-09-09T06:46:05.992Z,16.1
2017-09-09T06:47:18.019Z,16.16
2017-09-09T06:48:30.601Z,16.09
2017-09-09T06:49:43.202Z,16.06
2017-09-09T06:50:55.530Z,16.18
2017-09-09T06:52:07.526Z,16.21
2017-09-09T06:53:20.125Z,16.22
2017-09-09T06:54:32.379Z,16.28
2017-09-09T06:55:44.998Z,16.21
2017-09-09T06:56:57.544Z,16.28
2017-09-09T06:58:09.519Z,16.39
2017-09-09T06:59:22.076Z,16.37
2017-09-09T07:00:34.628Z,16.43
2017-09-09T07:01:47.217Z,16.31
2017-09-09T07:02:58.868Z,16.36
2017-09-09T07:04:11.214Z,16.44
2017-09-09T07:05:23.804Z,16.5
2017-09-09T07:06:36.414Z,16.41
2017-09-09T07:07:49.030Z,16.5
2017-09-09T07:09:01.310Z,16.57
2017-09-09T07:10:13.895Z,16.62
2017-09-09T07:11:26.240Z,16.61
2017-09-09T07:12:38.763Z,16.65
2017-09-09T07:13:51.038Z,16.73
2017-09-09T07:15:03.655Z,16.72
2017-09-09T07:16:15.947Z,16.79
2017-09-09T07:17:28.222Z,16.76
2017-09-09T07:18:40.187Z,16.72
2017-09-09T07:19:52.488Z,16.72
2017-09-09T07:21:04.731Z,16.87
2017-09-09T07:22:17.087Z,16.8
2017-09-09T07:23:29.674Z,16.79
2017-09-09T07:24:42.323Z,16.8
2017-09-09T07:25:54.863Z,16.82
2017-09-09T07:27:07.114Z,16.79
2017-09-09T07:28:19.706Z,16.74
2017-09-09T07:29:32.017Z,16.86
2017-09-09T07:30:44.568Z,16.73
2017-09-09T07:31:56.223Z,16.77
2017-09-09T07:33:08.817Z,16.72
2017-09-09T07:34:20.784Z,16.66
2017-09-09T07:35:33.406Z,16.62
2017-09-09T07:36:46.073Z,16.65
2017-09-09T07:37:58.672Z,16.66
2017-09-09T07:39:10.972Z,16.66
2017-09-09T07:40:23.253Z,16.62
2017-09-09T07:41:35.208Z,16.55
2017-09-09T07:42:47.176Z,16.51
2017-09-09T07:43:59.699Z,16.46
2017-09-09T07:45:12.273Z,16.47
2017-09-09T07:46:24.506Z,16.46
2017-09-09T07:47:36.758Z,16.46
2017-09-09T07:48:49.040Z,16.44
2017-09-09T07:50:00.999Z,16.43
2017-09-09T07:51:12.657Z,16.44
2017-09-09T07:52:25.279Z,16.39
2017-09-09T07:53:37.879Z,16.29
2017-09-09T07:54:49.812Z,16.31
2017-09-09T07:56:01.409Z,16.36
2017-09-09T07:57:13.735Z,16.36
2017-09-09T07:58:26.311Z,16.39
2017-09-09T07:59:38.614Z,16.39
2017-09-09T08:00:50.864Z,16.39
2017-09-09T08:02:03.455Z,16.36
2017-09-09T08:03:15.426Z,16.34
2017-09-09T08:04:27.959Z,16.34
2017-09-09T08:05:40.572Z,16.36
2017-09-09T08:06:53.100Z,16.34
2017-09-09T08:08:05.397Z,16.32
2017-09-09T08:09:18.055Z,16.29
2017-09-09T08:10:30.299Z,16.34
2017-09-09T08:11:42.288Z,16.39
2017-09-09T08:12:54.879Z,16.34
2017-09-09T08:14:07.198Z,16.4
2017-09-09T08:15:19.487Z,16.39
2017-09-09T08:16:31.796Z,16.4
2017-09-09T08:17:44.110Z,16.34
2017-09-09T08:18:56.437Z,16.28
2017-09-09T08:20:08.726Z,16.28
2017-09-09T08:21:21.347Z,16.36
2017-09-09T08:22:33.360Z,16.28
2017-09-09T08:23:45.927Z,16.4
2017-09-09T08:24:58.522Z,16.39
2017-09-09T08:26:10.822Z,16.34
2017-09-09T08:27:23.390Z,16.28
2017-09-09T08:28:35.928Z,16.13
2017-09-09T08:29:48.280Z,16.22
2017-09-09T08:31:00.507Z,16.18
2017-09-09T08:32:12.828Z,16.26
2017-09-09T08:33:25.082Z,16.21
2017-09-09T08:34:37.644Z,16.22
2017-09-09T08:35:50.247Z,16.18
2017-09-09T08:37:02.535Z,16.18
2017-09-09T08:38:14.457Z,16.17
2017-09-09T08:39:27.070Z,16.18
2017-09-09T08:40:39.383Z,16.17
2017-09-09T08:41:51.637Z,16.22
2017-09-09T08:43:03.634Z,16.18
2017-09-09T08:44:15.278Z,16.22
2017-09-09T08:45:26.949Z,16.22
2017-09-09T08:46:39.574Z,16.26
2017-09-09T08:47:51.843Z,16.17
2017-09-09T08:49:04.478Z,16.24
2017-09-09T08:50:16.460Z,16.12
2017-09-09T08:51:29.008Z,16.16
2017-09-09T08:52:41.649Z,16.13
2017-09-09T08:53:53.904Z,16.17
2017-09-09T08:55:06.198Z,16.18
2017-09-09T08:56:18.535Z,16.08
2017-09-09T08:57:30.741Z,16.16
2017-09-09T08:58:43.032Z,16.13
2017-09-09T08:59:55.214Z,16.1
2017-09-09T09:01:07.797Z,16.1
2017-09-09T09:02:20.381Z,16.09
2017-09-09T09:03:32.984Z,16.18
2017-09-09T09:04:44.980Z,16.17
2017-09-09T09:05:56.611Z,16.24
2017-09-09T09:07:08.570Z,16.26
2017-09-09T09:08:20.820Z,16.26
2017-09-09T09:09:33.393Z,16.25
2017-09-09T09:10:45.700Z,16.28
2017-09-09T09:11:58.205Z,16.32
2017-09-09T09:13:10.441Z,16.36
2017-09-09T09:14:22.397Z,16.36
2017-09-09T09:15:34.972Z,16.4
2017-09-09T09:16:47.212Z,16.32
2017-09-09T09:17:59.449Z,16.34
2017-09-09T09:19:11.695Z,16.32
2017-09-09T09:20:23.678Z,16.41
2017-09-09T09:21:35.944Z,16.37
2017-09-09T09:22:48.547Z,16.46
2017-09-09T09:24:00.834Z,16.41
2017-09-09T09:25:12.804Z,16.43
2017-09-09T09:26:24.833Z,16.41
2017-09-09T09:27:37.139Z,16.41
2017-09-09T09:28:49.778Z,16.43
2017-09-09T09:30:02.000Z,16.46
2017-09-09T09:31:14.066Z,16.49
2017-09-09T09:32:26.622Z,16.5
2017-09-09T09:33:38.282Z,16.55
2017-09-09T09:34:50.522Z,16.44
2017-09-09T09:36:02.803Z,16.49
2017-09-09T09:37:15.125Z,16.59
2017-09-09T09:38:27.395Z,16.57
2017-09-09T09:39:39.353Z,16.55
2017-09-09T09:40:51.960Z,16.51
2017-09-09T09:42:03.950Z,16.51
2017-09-09T09:43:16.215Z,16.5
2017-09-09T09:44:28.778Z,16.59
2017-09-09T09:45:41.410Z,16.55
2017-09-09T09:46:54.027Z,16.58
2017-09-09T09:48:06.289Z,16.64
2017-09-09T09:49:17.939Z,16.62
2017-09-09T09:50:30.217Z,16.62
2017-09-09T09:51:42.542Z,16.61
2017-09-09T09:52:54.859Z,16.72
2017-09-09T09:54:07.211Z,16.76
2017-09-09T09:55:19.472Z,16.82
2017-09-09T09:56:31.716Z,16.74
2017-09-09T09:57:44.014Z,16.87
2017-09-09T09:58:56.296Z,16.89
2017-09-09T10:00:08.872Z,16.87
2017-09-09T10:01:21.443Z,16.98
2017-09-09T10:02:34.045Z,16.89
2017-09-09T10:03:46.667Z,16.99
2017-09-09T10:04:58.890Z,16.98
2017-09-09T10:06:11.569Z,17.02
2017-09-09T10:07:24.164Z,16.95
2017-09-09T10:08:36.100Z,17.1
2017-09-09T10:09:48.418Z,17.05
2017-09-09T10:11:00.369Z,17.07
2017-09-09T10:12:12.978Z,17.12
2017-09-09T10:13:24.634Z,17.1
2017-09-09T10:14:37.164Z,17.14
2017-09-09T10:15:48.834Z,17.19
2017-09-09T10:17:01.121Z,17.22
2017-09-09T10:18:13.756Z,17.23
2017-09-09T10:19:25.721Z,17.24
2017-09-09T10:20:38.307Z,17.24
2017-09-09T10:21:50.627Z,17.32
2017-09-09T10:23:02.654Z,17.23
2017-09-09T10:24:14.936Z,17.22
2017-09-09T10:25:26.875Z,17.23
2017-09-09T10:26:39.166Z,17.19
2017-09-09T10:27:51.742Z,17.17
2017-09-09T10:29:04.125Z,17.17
2017-09-09T10:30:16.749Z,17.2
2017-09-09T10:31:28.366Z,17.19
2017-09-09T10:32:40.604Z,17.14
2017-09-09T10:33:53.183Z,17.16
2017-09-09T10:35:05.486Z,17.16
2017-09-09T10:36:18.028Z,17.13
2017-09-09T10:37:30.345Z,17.17
2017-09-09T10:38:42.991Z,17.16
2017-09-09T10:39:54.979Z,17.22
2017-09-09T10:41:07.518Z,17.2
2017-09-09T10:42:20.081Z,17.3
2017-09-09T10:43:32.392Z,17.23
2017-09-09T10:44:44.380Z,17.23
2017-09-09T10:45:56.651Z,17.3
2017-09-09T10:47:08.913Z,17.24
2017-09-09T10:48:21.481Z,17.3
2017-09-09T10:49:33.776Z,17.27
2017-09-09T10:50:46.020Z,17.27
2017-09-09T10:51:57.985Z,17.35
2017-09-09T10:53:09.978Z,17.39
2017-09-09T10:54:22.595Z,17.35
2017-09-09T10:55:34.880Z,17.35
2017-09-09T10:56:47.126Z,17.42
2017-09-09T10:57:59.061Z,17.44
2017-09-09T10:59:11.390Z,17.42
2017-09-09T11:00:24.361Z,17.37
2017-09-09T11:01:36.686Z,17.53
2017-09-09T11:02:49.007Z,17.41
2017-09-09T11:04:01.403Z,17.52
2017-09-09T11:05:13.388Z,17.6
2017-09-09T11:06:25.620Z,17.5
2017-09-09T11:07:38.200Z,17.38
2017-09-09T11:08:50.188Z,17.37
2017-09-09T11:10:02.514Z,17.44
2017-09-09T11:11:15.155Z,17.42
2017-09-09T11:12:27.426Z,17.37
2017-09-09T11:13:39.989Z,17.38
2017-09-09T11:14:52.617Z,17.34
2017-09-09T11:16:04.242Z,17.38
2017-09-09T11:17:16.583Z,17.41
2017-09-09T11:18:29.176Z,17.3
2017-09-09T11:19:41.743Z,17.31
2017-09-09T11:20:54.413Z,17.24
2017-09-09T11:22:07.002Z,17.31
2017-09-09T11:23:19.604Z,17.27
2017-09-09T11:24:31.891Z,17.22
2017-09-09T11:25:44.169Z,17.16
2017-09-09T11:26:56.822Z,17.16
2017-09-09T11:28:08.816Z,17.19
2017-09-09T11:29:21.357Z,17.14
2017-09-09T11:30:33.621Z,17.13
2017-09-09T11:31:46.187Z,17.12
2017-09-09T11:32:58.522Z,17.05
2017-09-09T11:34:10.403Z,17.09
2017-09-09T11:35:22.691Z,17.1
2017-09-09T11:36:33.982Z,17.12
2017-09-09T11:37:46.228Z,17.12
2017-09-09T11:38:58.840Z,17.09
2017-09-09T11:40:11.419Z,17.1
2017-09-09T11:41:23.683Z,17.1
2017-09-09T11:42:36.211Z,17.12
2017-09-09T11:43:48.778Z,17.16
2017-09-09T11:45:00.418Z,17.13
2017-09-09T11:46:12.770Z,17.14
2017-09-09T11:47:25.057Z,17.16
2017-09-09T11:48:37.364Z,17.1
2017-09-09T11:49:49.620Z,17.13
2017-09-09T11:51:01.605Z,17.05
2017-09-09T11:52:14.210Z,17.13
2017-09-09T11:53:26.451Z,17.12
2017-09-09T11:54:39.042Z,17.09
2017-09-09T11:55:51.584Z,17.07
2017-09-09T11:57:03.269Z,17.07
2017-09-09T11:58:15.539Z,17.12
2017-09-09T11:59:27.884Z,16.98
2017-09-09T12:00:40.473Z,17.01
2017-09-09T12:01:52.769Z,16.98
2017-09-09T12:03:05.029Z,17.01
2017-09-09T12:04:17.352Z,16.89
2017-09-09T12:05:29.877Z,17.05
2017-09-09T12:06:41.241Z,16.91
2017-09-09T12:07:52.858Z,17.01
2017-09-09T12:09:05.440Z,17.07
2017-09-09T12:10:17.692Z,17.04
2017-09-09T12:11:29.955Z,16.94
2017-09-09T12:12:42.557Z,16.91
2017-09-09T12:13:55.150Z,16.91
2017-09-09T12:15:07.800Z,16.86
2017-09-09T12:16:20.042Z,16.86
2017-09-09T12:17:32.635Z,16.86
2017-09-09T12:18:45.241Z,16.91
2017-09-09T12:19:57.456Z,16.86
2017-09-09T12:21:09.720Z,16.72
2017-09-09T12:22:22.034Z,16.73
2017-09-09T12:23:34.331Z,16.69
2017-09-09T12:24:46.366Z,16.82
2017-09-09T12:25:58.947Z,16.69
2017-09-09T12:27:11.805Z,16.72
2017-09-09T12:28:24.385Z,16.82
2017-09-09T12:29:36.958Z,16.66
2017-09-09T12:30:49.278Z,16.72
2017-09-09T12:32:01.882Z,16.83
2017-09-09T12:33:14.481Z,16.87
2017-09-09T12:34:27.180Z,16.87
2017-09-09T12:35:39.472Z,16.86
2017-09-09T12:36:51.437Z,16.95
2017-09-09T12:38:03.352Z,16.99
2017-09-09T12:39:15.667Z,16.97
2017-09-09T12:40:27.668Z,17.02
2017-09-09T12:41:39.960Z,17.05
2017-09-09T12:42:52.524Z,17.02
2017-09-09T12:44:04.748Z,17.02
2017-09-09T12:45:17.070Z,17.01
2017-09-09T12:46:29.672Z,17.05
2017-09-09T12:47:42.238Z,17.02
2017-09-09T12:48:54.497Z,17.04
2017-09-09T12:50:06.778Z,16.92
2017-09-09T12:51:19.081Z,16.99
2017-09-09T12:52:31.325Z,16.94
2017-09-09T12:53:43.628Z,16.98
2017-09-09T12:54:55.598Z,16.94
2017-09-09T12:56:07.906Z,16.99
2017-09-09T12:57:20.515Z,16.91
2017-09-09T12:58:33.085Z,16.84
2017-09-09T12:59:45.637Z,16.72
2017-09-09T13:00:58.226Z,16.74
2017-09-09T13:02:10.816Z,16.69
2017-09-09T13:03:23.126Z,16.69
2017-09-09T13:04:35.417Z,16.65
2017-09-09T13:05:48.259Z,16.59
2017-09-09T13:07:00.583Z,16.54
2017-09-09T13:08:13.187Z,16.55
2017-09-09T13:09:25.470Z,16.59
2017-09-09T13:10:38.100Z,16.46
2017-09-09T13:11:50.692Z,16.51
2017-09-09T13:13:03.283Z,16.51
2017-09-09T13:14:15.540Z,16.44
2017-09-09T13:15:27.468Z,16.39
2017-09-09T13:16:39.699Z,16.34
2017-09-09T13:17:52.268Z,16.29
2017-09-09T13:19:04.863Z,16.36
2017-09-09T13:20:17.385Z,16.34
2017-09-09T13:21:29.678Z,16.32
2017-09-09T13:22:41.580Z,16.32
2017-09-09T13:23:54.193Z,16.39
2017-09-09T13:25:06.468Z,16.41
2017-09-09T13:26:19.086Z,16.34
2017-09-09T13:27:31.355Z,16.37
2017-09-09T13:28:43.662Z,16.31
2017-09-09T13:29:56.265Z,16.31
2017-09-09T13:31:08.560Z,16.36
2017-09-09T13:32:20.614Z,16.29
2017-09-09T13:33:32.612Z,16.34
2017-09-09T13:34:44.831Z,16.34
2017-09-09T13:35:57.075Z,16.34
2017-09-09T13:37:09.346Z,16.29
2017-09-09T13:38:21.941Z,16.39
2017-09-09T13:39:34.243Z,16.4
2017-09-09T13:40:46.505Z,16.39
2017-09-09T13:41:58.756Z,16.39
2017-09-09T13:43:11.324Z,16.4
2017-09-09T13:44:23.945Z,16.43
2017-09-09T13:45:36.589Z,16.4
2017-09-09T13:46:49.180Z,16.43
2017-09-09T13:48:01.736Z,16.54
2017-09-09T13:49:14.297Z,16.59
2017-09-09T13:50:26.331Z,16.58
2017-09-09T13:51:38.621Z,16.57
2017-09-09T13:52:51.247Z,16.62
2017-09-09T13:54:03.835Z,16.62
2017-09-09T13:55:16.118Z,16.64
2017-09-09T13:56:28.760Z,16.65
2017-09-09T13:57:40.723Z,16.68
2017-09-09T13:58:53.317Z,16.69
2017-09-09T14:00:05.616Z,16.68
2017-09-09T14:01:17.863Z,16.76
2017-09-09T14:02:29.514Z,16.79
2017-09-09T14:03:41.826Z,16.74
2017-09-09T14:04:54.084Z,16.84
2017-09-09T14:06:06.635Z,16.89
2017-09-09T14:07:18.881Z,16.97
2017-09-09T14:08:31.517Z,16.97
2017-09-09T14:09:43.829Z,16.91
2017-09-09T14:10:56.467Z,16.99
2017-09-09T14:12:08.121Z,17.01
2017-09-09T14:13:20.058Z,17.1
2017-09-09T14:14:32.064Z,17.09
2017-09-09T14:15:44.332Z,17.13
2017-09-09T14:16:56.964Z,17.16
2017-09-09T14:18:09.259Z,17.19
2017-09-09T14:19:20.940Z,17.19
2017-09-09T14:20:33.202Z,17.24
2017-09-09T14:21:45.195Z,17.28
2017-09-09T14:22:57.420Z,17.28
2017-09-09T14:24:09.408Z,17.27
2017-09-09T14:25:22.015Z,17.31
2017-09-09T14:26:34.668Z,17.32
2017-09-09T14:27:46.939Z,17.32
2017-09-09T14:28:59.188Z,17.31
2017-09-09T14:30:11.781Z,17.37
2017-09-09T14:31:24.401Z,17.46
2017-09-09T14:32:36.664Z,17.42
2017-09-09T14:33:49.226Z,17.5
2017-09-09T14:35:01.837Z,17.53
2017-09-09T14:36:14.085Z,17.56
2017-09-09T14:37:26.662Z,17.57
2017-09-09T14:38:39.218Z,17.65
2017-09-09T14:39:51.527Z,17.69
2017-09-09T14:41:03.518Z,17.76
2017-09-09T14:42:15.722Z,17.84
2017-09-09T14:43:28.343Z,17.95
2017-09-09T14:44:40.319Z,17.94
2017-09-09T14:45:52.966Z,18.03
2017-09-09T14:47:05.511Z,18
2017-09-09T14:48:17.769Z,18.16
2017-09-09T14:49:30.364Z,18.15
2017-09-09T14:50:42.998Z,18.15
2017-09-09T14:51:55.293Z,18.28
2017-09-09T14:53:07.243Z,18.28
2017-09-09T14:54:19.879Z,18.26
2017-09-09T14:55:32.214Z,18.28
2017-09-09T14:56:44.855Z,18.37
2017-09-09T14:57:57.431Z,18.24
2017-09-09T14:59:09.704Z,18.28
2017-09-09T15:00:22.053Z,18.26
2017-09-09T15:01:34.343Z,18.31
2017-09-09T15:02:46.868Z,18.31
2017-09-09T15:03:59.418Z,18.39
2017-09-09T15:05:12.034Z,18.45
2017-09-09T15:06:24.331Z,18.43
2017-09-09T15:07:36.325Z,18.48
2017-09-09T15:08:48.645Z,18.46
2017-09-09T15:10:00.915Z,18.51
2017-09-09T15:11:13.538Z,18.49
2017-09-09T15:12:25.864Z,18.48
2017-09-09T15:13:38.185Z,18.63
2017-09-09T15:14:50.830Z,18.55
2017-09-09T15:16:02.495Z,18.6
2017-09-09T15:17:15.043Z,18.66
2017-09-09T15:18:27.257Z,18.64
2017-09-09T15:19:39.794Z,18.71
2017-09-09T15:20:52.420Z,18.64
2017-09-09T15:22:04.970Z,18.63
2017-09-09T15:23:17.564Z,18.67
2017-09-09T15:24:29.800Z,18.73
2017-09-09T15:25:41.768Z,18.64
2017-09-09T15:26:54.031Z,18.68
2017-09-09T15:28:06.327Z,18.63
2017-09-09T15:29:18.572Z,18.63
2017-09-09T15:30:30.506Z,18.6
2017-09-09T15:31:42.783Z,18.49
2017-09-09T15:32:55.428Z,18.46
2017-09-09T15:34:07.717Z,18.48
2017-09-09T15:35:20.392Z,18.39